Tuskahoma, OK (74574)

7:21 AM CST on February 09, 2016 (GMT -0600)
Sardis Lake Cabins | | Change Station
CLOSE
Current Station
Personal Weather Station
Location: Tuskahoma, OK
Elevation: 667 ft
Nearby Weather Stations

Elev 667 ft 34.66 °N, 95.32 °W | Updated 4 minutes ago

Clear
Clear
33.3 °F
Feels Like 28 °F
N
5.8
Wind Variable Wind from NW

Today
High -- | Low -- °F
--% Chance of Precip.
Yesterday
High -- | Low -- °F
Precip. -- in
Pressure 30.24 in
Visibility 10.0 miles
Clouds Few 7000 ft
Scattered Clouds 8500 ft
Windchill 28 °F
Dew Point 23 °F
Humidity 66%
Rainfall 0.00 in
Snow Depth Not available.
7:13 AM 5:57 PM
New Moon, 1% visible
METAR KMLC 091253Z AUTO 28005KT 10SM FEW070 SCT085 M01/M09 A3023 RMK AO2 SLP239 T10061089
Pressure 30.24 in
Visibility 10.0 miles
Clouds Few 7000 ft
Scattered Clouds 8500 ft
Windchill 28 °F
Dew Point 23 °F
Humidity 66%
Rainfall 0.00 in
Snow Depth Not available.
7:13 AM 5:57 PM
New Moon, 1% visible
METAR KMLC 091253Z AUTO 28005KT 10SM FEW070 SCT085 M01/M09 A3023 RMK AO2 SLP239 T10061089

10-Day Weather Forecast

Almanac

Astronomy

Feb. 09, 2016 Rise Set
Actual Time
Civil Twilight
Nautical Twilight
Astronomical Twilight
Moon
Length of Visible Light
Length of Day
Tomorrow will be .
, % of the Moon is Illuminated

Today's Extremes

State Highs State Lows

Community

WunderPhotos

Upload Photos

1,891,591 photos uploaded!

WunderBlog® & News

Nearby

Air Quality

  Air Quality AQ Index Pollutant
Not available.

Snow Depth

Station Depth Elevation

Earthquake Activity

City Distance Mag. Time & Date
Minimum magnitude displayed is 2.5.

Coastal Water Temperatures

Place Temperature

Stations

Nearby Weather Stations

Station Location Temp. Windchill Dew Point Humidity Wind Precip. Elev Updated Type
                   

Watches & Warnings

There are currently no watches in effect.